createdAt,value
2018-07-26T00:01:24.641Z,5.07
2018-07-26T00:03:52.904Z,4.90
2018-07-26T00:06:21.185Z,4.83
2018-07-26T00:08:49.524Z,5.60
2018-07-26T00:11:18.116Z,5.87
2018-07-26T00:13:46.403Z,5.13
2018-07-26T00:16:14.684Z,5.90
2018-07-26T00:18:42.973Z,5.57
2018-07-26T00:21:11.267Z,5.63
2018-07-26T00:23:39.540Z,4.90
2018-07-26T00:26:07.771Z,5.10
2018-07-26T00:28:36.072Z,5.37
2018-07-26T00:31:04.389Z,5.07
2018-07-26T00:33:32.655Z,6.03
2018-07-26T00:36:00.974Z,5.43
2018-07-26T00:38:28.978Z,5.57
2018-07-26T00:40:57.248Z,5.23
2018-07-26T00:43:25.260Z,5.40
2018-07-26T00:45:53.534Z,6.13
2018-07-26T00:48:21.815Z,5.70
2018-07-26T00:50:49.808Z,5.20
2018-07-26T00:53:18.107Z,4.83
2018-07-26T00:55:46.378Z,5.10
2018-07-26T00:58:14.668Z,5.10
2018-07-26T01:00:42.962Z,5.67
2018-07-26T01:03:11.533Z,5.60
2018-07-26T01:05:39.872Z,5.50
2018-07-26T01:10:42.671Z,5.30
2018-07-26T01:13:10.940Z,4.90
2018-07-26T01:15:39.215Z,5.00
2018-07-26T01:18:07.515Z,5.20
2018-07-26T01:20:35.517Z,5.00
2018-07-26T01:23:03.775Z,5.30
2018-07-26T01:25:32.364Z,4.33
2018-07-26T01:28:00.644Z,5.20
2018-07-26T01:30:28.929Z,5.27
2018-07-26T01:32:57.296Z,5.03
2018-07-26T01:35:25.565Z,5.70
2018-07-26T01:37:53.923Z,4.63
2018-07-26T01:40:21.915Z,4.57
2018-07-26T01:43:01.668Z,4.90
2018-07-26T01:45:29.676Z,4.60
2018-07-26T01:47:57.942Z,4.33
2018-07-26T01:50:25.968Z,4.60
2018-07-26T01:52:54.256Z,4.47
2018-07-26T01:55:22.528Z,4.37
2018-07-26T01:57:50.803Z,4.77
2018-07-26T02:00:19.121Z,5.17
2018-07-26T02:02:47.461Z,4.37
2018-07-26T02:05:15.809Z,4.57
2018-07-26T02:07:44.096Z,5.47
2018-07-26T02:10:15.399Z,5.20
2018-07-26T02:12:43.675Z,4.93
2018-07-26T02:15:12.177Z,5.13
2018-07-26T02:17:40.806Z,4.37
2018-07-26T02:20:09.073Z,5.80
2018-07-26T02:22:37.450Z,5.63
2018-07-26T02:25:05.466Z,5.20
2018-07-26T02:27:33.749Z,5.33
2018-07-26T02:30:02.008Z,5.50
2018-07-26T02:32:30.036Z,6.33
2018-07-26T02:34:58.352Z,6.43
2018-07-26T02:37:26.628Z,6.37
2018-07-26T02:39:54.896Z,6.27
2018-07-26T02:42:23.189Z,6.50
2018-07-26T02:44:51.495Z,6.30
2018-07-26T02:47:19.771Z,5.23
2018-07-26T02:49:48.068Z,5.77
2018-07-26T02:52:16.373Z,5.97
2018-07-26T02:54:44.733Z,4.63
2018-07-26T02:57:13.000Z,6.10
2018-07-26T02:59:41.281Z,6.40
2018-07-26T03:02:09.871Z,5.70
2018-07-26T03:04:38.172Z,5.50
2018-07-26T03:07:06.592Z,5.67
2018-07-26T03:09:34.560Z,5.80
2018-07-26T03:12:02.823Z,5.90
2018-07-26T03:14:35.171Z,5.77
2018-07-26T03:17:03.440Z,6.87
2018-07-26T03:19:31.785Z,6.00
2018-07-26T03:21:59.780Z,6.40
2018-07-26T03:24:28.056Z,6.00
2018-07-26T03:26:56.083Z,5.80
2018-07-26T03:29:24.372Z,6.23
2018-07-26T03:31:52.636Z,5.53
2018-07-26T03:34:20.959Z,5.97
2018-07-26T03:36:49.741Z,6.03
2018-07-26T03:39:18.097Z,6.60
2018-07-26T03:41:46.125Z,6.00
2018-07-26T03:44:14.880Z,6.17
2018-07-26T03:46:43.202Z,7.67
2018-07-26T03:49:11.744Z,7.30
2018-07-26T03:51:40.021Z,7.30
2018-07-26T03:54:08.313Z,6.93
2018-07-26T03:56:36.644Z,6.67
2018-07-26T03:59:05.199Z,6.77
2018-07-26T04:01:33.593Z,6.90
2018-07-26T04:04:01.966Z,7.00
2018-07-26T04:06:30.256Z,7.17
2018-07-26T04:08:58.567Z,7.43
2018-07-26T04:11:27.165Z,6.30
2018-07-26T04:13:55.532Z,6.60
2018-07-26T04:16:23.780Z,6.90
2018-07-26T04:18:52.106Z,7.93
2018-07-26T04:21:20.387Z,6.87
2018-07-26T04:23:48.680Z,7.43
2018-07-26T04:26:16.980Z,7.63
2018-07-26T04:28:45.409Z,8.50
2018-07-26T04:31:13.680Z,7.33
2018-07-26T04:33:41.974Z,8.33
2018-07-26T04:36:10.024Z,7.50
2018-07-26T04:38:38.401Z,7.87
2018-07-26T04:41:06.787Z,7.17
2018-07-26T04:43:35.555Z,7.63
2018-07-26T04:46:04.748Z,7.70
2018-07-26T04:48:33.120Z,6.77
2018-07-26T04:51:01.416Z,7.47
2018-07-26T04:53:29.755Z,7.80
2018-07-26T04:55:58.013Z,6.30
2018-07-26T04:58:26.271Z,7.63
2018-07-26T05:00:55.159Z,7.30
2018-07-26T05:03:23.656Z,6.87
2018-07-26T05:05:51.984Z,7.57
2018-07-26T05:08:19.991Z,6.60
2018-07-26T05:10:48.299Z,7.33
2018-07-26T05:13:16.594Z,6.60
2018-07-26T05:15:44.899Z,6.83
2018-07-26T05:18:13.155Z,6.97
2018-07-26T05:20:41.432Z,6.00
2018-07-26T05:23:09.793Z,6.40
2018-07-26T05:25:38.088Z,7.20
2018-07-26T05:28:06.124Z,7.00
2018-07-26T05:30:34.394Z,6.97
2018-07-26T05:33:03.040Z,6.10
2018-07-26T05:35:31.312Z,7.20
2018-07-26T05:37:59.613Z,6.43
2018-07-26T05:40:27.893Z,6.70
2018-07-26T05:42:56.192Z,6.53
2018-07-26T05:45:24.564Z,8.07
2018-07-26T05:47:52.883Z,6.80
2018-07-26T05:50:21.859Z,7.47
2018-07-26T05:52:50.128Z,6.20
2018-07-26T05:55:18.446Z,6.87
2018-07-26T05:57:46.734Z,7.40
2018-07-26T06:00:15.195Z,6.63
2018-07-26T06:02:44.229Z,6.33
2018-07-26T06:05:12.495Z,6.63
2018-07-26T06:07:40.836Z,7.03
2018-07-26T06:10:09.676Z,6.80
2018-07-26T06:12:37.971Z,6.57
2018-07-26T06:15:09.043Z,6.93
2018-07-26T06:17:37.354Z,6.53
2018-07-26T06:20:07.266Z,7.00
2018-07-26T06:22:35.547Z,6.60
2018-07-26T06:25:03.915Z,7.57
2018-07-26T06:27:32.191Z,6.90
2018-07-26T06:30:00.513Z,7.67
2018-07-26T06:32:28.965Z,6.13
2018-07-26T06:34:57.264Z,7.03
2018-07-26T06:37:25.602Z,5.83
2018-07-26T06:39:53.895Z,6.77
2018-07-26T06:42:22.184Z,7.27
2018-07-26T06:44:50.553Z,8.20
2018-07-26T06:47:19.280Z,7.90
2018-07-26T06:49:47.570Z,7.07
2018-07-26T06:52:15.904Z,7.00
2018-07-26T06:54:44.227Z,9.07
2018-07-26T06:57:12.560Z,7.10
2018-07-26T06:59:40.864Z,7.97
2018-07-26T07:02:09.348Z,8.47
2018-07-26T07:04:37.648Z,8.80
2018-07-26T07:07:05.931Z,7.80
2018-07-26T07:09:34.244Z,8.37
2018-07-26T07:12:02.540Z,7.97
2018-07-26T07:14:30.987Z,8.50
2018-07-26T07:16:59.001Z,8.87
2018-07-26T07:19:27.296Z,8.27
2018-07-26T07:21:55.599Z,8.30
2018-07-26T07:24:24.002Z,9.13
2018-07-26T07:26:59.190Z,8.40
2018-07-26T07:29:27.463Z,9.80
2018-07-26T07:31:55.525Z,8.27
2018-07-26T07:34:23.918Z,8.57
2018-07-26T07:36:52.400Z,7.27
2018-07-26T07:39:20.692Z,8.63
2018-07-26T07:41:49.043Z,10.10
2018-07-26T07:44:17.260Z,8.93
2018-07-26T07:46:45.549Z,8.40
2018-07-26T07:49:13.826Z,9.17
2018-07-26T07:51:42.122Z,7.97
2018-07-26T07:54:10.412Z,8.23
2018-07-26T07:56:38.717Z,8.10
2018-07-26T07:59:06.984Z,7.07
2018-07-26T08:01:35.274Z,8.23
2018-07-26T08:04:03.603Z,8.77
2018-07-26T08:06:31.882Z,8.90
2018-07-26T08:09:00.135Z,9.40
2018-07-26T08:11:28.767Z,7.67
2018-07-26T08:13:57.040Z,7.57
2018-07-26T08:16:25.336Z,8.23
2018-07-26T08:18:53.607Z,7.97
2018-07-26T08:21:21.898Z,8.10
2018-07-26T08:23:50.165Z,9.27
2018-07-26T08:26:18.432Z,8.10
2018-07-26T08:28:47.012Z,8.57
2018-07-26T08:31:15.131Z,7.90
2018-07-26T08:33:43.469Z,8.10
2018-07-26T08:36:11.512Z,7.57
2018-07-26T08:38:39.785Z,8.00
2018-07-26T08:41:08.291Z,7.10
2018-07-26T08:43:36.748Z,8.37
2018-07-26T08:46:05.412Z,7.57
2018-07-26T08:48:33.683Z,6.90
2018-07-26T08:51:01.991Z,7.17
2018-07-26T08:53:30.326Z,8.23
2018-07-26T08:55:58.639Z,7.20
2018-07-26T08:58:26.922Z,7.37
2018-07-26T09:00:55.301Z,6.90
2018-07-26T09:03:23.604Z,7.03
2018-07-26T09:05:51.873Z,7.30
2018-07-26T09:08:20.441Z,7.27
2018-07-26T09:10:48.477Z,7.37
2018-07-26T09:13:16.788Z,7.07
2018-07-26T09:15:45.093Z,7.10
2018-07-26T09:18:13.342Z,7.53
2018-07-26T09:20:41.631Z,8.20
2018-07-26T09:23:09.892Z,7.03
2018-07-26T09:25:38.770Z,7.87
2018-07-26T09:28:06.783Z,6.57
2018-07-26T09:30:35.093Z,6.43
2018-07-26T09:33:03.417Z,6.60
2018-07-26T09:35:31.728Z,6.83
2018-07-26T09:37:59.996Z,7.30
2018-07-26T09:40:28.236Z,7.07
2018-07-26T09:42:56.552Z,6.70
2018-07-26T09:45:24.830Z,7.80
2018-07-26T09:47:53.231Z,6.97
2018-07-26T09:50:21.548Z,6.53
2018-07-26T09:52:50.351Z,6.70
2018-07-26T09:55:18.500Z,7.03
2018-07-26T09:57:46.780Z,6.27
2018-07-26T10:00:19.358Z,7.30
2018-07-26T10:02:47.642Z,6.47
2018-07-26T10:05:15.935Z,6.53
2018-07-26T10:07:44.226Z,7.70
2018-07-26T10:10:12.594Z,7.23
2018-07-26T10:12:40.876Z,5.80
2018-07-26T10:15:09.232Z,6.60
2018-07-26T10:17:37.468Z,7.03
2018-07-26T10:20:05.851Z,7.03
2018-07-26T10:22:34.117Z,5.90
2018-07-26T10:25:02.122Z,5.93
2018-07-26T10:27:30.509Z,6.23
2018-07-26T10:29:58.855Z,5.30
2018-07-26T10:32:27.154Z,5.30
2018-07-26T10:34:55.456Z,5.30
2018-07-26T10:37:23.500Z,5.23
2018-07-26T10:39:52.068Z,5.17
2018-07-26T10:42:20.383Z,5.37
2018-07-26T10:44:48.670Z,5.10
2018-07-26T10:47:16.977Z,5.20
2018-07-26T10:49:45.233Z,4.80
2018-07-26T10:52:13.535Z,4.87
2018-07-26T10:54:41.783Z,5.70
2018-07-26T10:57:10.551Z,4.80
2018-07-26T10:59:38.845Z,5.03
2018-07-26T11:02:07.102Z,4.70
2018-07-26T11:04:35.384Z,4.90
2018-07-26T11:07:03.656Z,4.97
2018-07-26T11:09:32.006Z,4.53
2018-07-26T11:12:00.280Z,4.50
2018-07-26T11:14:28.595Z,4.80
2018-07-26T11:16:56.861Z,4.57
2018-07-26T11:19:25.183Z,4.60
2018-07-26T11:21:53.502Z,4.80
2018-07-26T11:24:21.885Z,4.40
2018-07-26T11:26:50.156Z,4.13
2018-07-26T11:29:18.433Z,4.70
2018-07-26T11:31:46.737Z,4.93
2018-07-26T11:34:15.127Z,4.00
2018-07-26T11:36:43.427Z,4.80
2018-07-26T11:39:11.930Z,4.50
2018-07-26T11:41:40.337Z,4.40
2018-07-26T11:44:08.669Z,4.40
2018-07-26T11:46:37.203Z,3.87
2018-07-26T11:49:05.551Z,4.30
2018-07-26T11:51:33.577Z,3.57
2018-07-26T11:54:01.918Z,3.97
2018-07-26T11:56:30.206Z,4.03
2018-07-26T11:58:58.508Z,4.30
2018-07-26T12:01:26.532Z,4.33
2018-07-26T12:03:54.799Z,4.30
2018-07-26T12:06:23.104Z,4.20
2018-07-26T12:08:51.355Z,4.80
2018-07-26T12:11:19.667Z,4.00
2018-07-26T12:13:48.006Z,3.63
2018-07-26T12:16:16.616Z,3.97
2018-07-26T12:18:44.899Z,4.50
2018-07-26T12:21:13.200Z,4.17
2018-07-26T12:23:41.482Z,4.07
2018-07-26T12:26:09.763Z,4.50
2018-07-26T12:28:38.068Z,4.23
2018-07-26T12:31:06.091Z,4.47
2018-07-26T12:33:34.398Z,4.63
2018-07-26T12:36:02.646Z,3.90
2018-07-26T12:38:30.920Z,3.80
2018-07-26T12:40:58.938Z,4.37
2018-07-26T12:43:27.258Z,4.07
2018-07-26T12:45:55.550Z,4.40
2018-07-26T12:48:23.817Z,4.00
2018-07-26T12:50:52.327Z,3.73
2018-07-26T12:53:20.657Z,4.47
2018-07-26T12:55:48.916Z,4.10
2018-07-26T12:58:17.195Z,3.83
2018-07-26T13:00:45.514Z,4.40
2018-07-26T13:03:13.782Z,3.97
2018-07-26T13:05:42.044Z,4.33
2018-07-26T13:08:10.371Z,3.80
2018-07-26T13:10:38.633Z,4.30
2018-07-26T13:13:06.967Z,3.90
2018-07-26T13:15:35.232Z,3.80
2018-07-26T13:18:03.524Z,4.07
2018-07-26T13:20:31.882Z,4.03
2018-07-26T13:32:24.593Z,3.93
2018-07-26T13:34:53.045Z,4.33
2018-07-26T13:37:21.373Z,4.40
2018-07-26T13:39:49.760Z,4.70
2018-07-26T13:42:17.995Z,4.33
2018-07-26T13:44:46.308Z,4.33
2018-07-26T13:47:14.600Z,4.07
2018-07-26T13:49:42.872Z,4.70
2018-07-26T13:52:11.174Z,4.60
2018-07-26T13:54:39.452Z,4.37
2018-07-26T13:57:07.884Z,4.37
2018-07-26T13:59:36.163Z,3.70
2018-07-26T14:02:04.264Z,4.20
2018-07-26T14:04:32.612Z,4.13
2018-07-26T14:07:00.976Z,4.07
2018-07-26T14:09:29.271Z,4.50
2018-07-26T14:11:57.573Z,4.13
2018-07-26T14:14:25.836Z,4.00
2018-07-26T14:16:54.336Z,3.90
2018-07-26T14:19:22.607Z,4.70
2018-07-26T14:21:50.868Z,4.47
2018-07-26T14:24:22.199Z,4.10
2018-07-26T14:26:50.958Z,5.10
2018-07-26T14:29:19.301Z,5.00
2018-07-26T14:31:47.564Z,4.80
2018-07-26T14:34:15.868Z,5.00
2018-07-26T14:36:44.837Z,5.27
2018-07-26T14:39:13.534Z,4.57
2018-07-26T14:41:41.844Z,5.50
2018-07-26T14:44:10.869Z,4.90
2018-07-26T14:46:39.545Z,4.67
2018-07-26T14:49:07.854Z,4.97
2018-07-26T14:51:36.224Z,4.03
2018-07-26T14:54:04.565Z,4.70
2018-07-26T14:56:32.937Z,4.30
2018-07-26T14:59:01.267Z,4.93
2018-07-26T15:01:29.544Z,4.43
2018-07-26T15:03:57.913Z,4.50
2018-07-26T15:06:26.270Z,4.23
2018-07-26T15:08:54.660Z,5.10
2018-07-26T15:11:23.442Z,6.90
2018-07-26T15:13:52.102Z,9.10
2018-07-26T15:16:20.412Z,13.33
2018-07-26T15:18:48.701Z,5.87
2018-07-26T15:21:17.097Z,5.53
2018-07-26T15:23:45.340Z,4.77
2018-07-26T15:26:13.664Z,4.23
2018-07-26T15:28:41.872Z,5.60
2018-07-26T15:31:10.739Z,4.80
2018-07-26T15:33:38.451Z,5.63
2018-07-26T15:36:06.738Z,5.83
2018-07-26T15:38:35.092Z,15.90
2018-07-26T15:41:03.096Z,18.20
2018-07-26T15:43:31.500Z,23.23
2018-07-26T15:45:59.760Z,9.53
2018-07-26T15:48:28.087Z,6.00
2018-07-26T15:50:56.483Z,5.83
2018-07-26T15:53:24.973Z,4.77
2018-07-26T15:55:53.252Z,5.70
2018-07-26T15:58:21.635Z,6.10
2018-07-26T16:00:49.903Z,5.10
2018-07-26T16:03:30.197Z,4.77
2018-07-26T16:05:58.287Z,5.20
2018-07-26T16:08:26.781Z,5.00
2018-07-26T16:10:55.468Z,4.67
2018-07-26T16:13:23.741Z,5.53
2018-07-26T16:15:52.140Z,5.20
2018-07-26T16:18:20.649Z,5.40
2018-07-26T16:20:48.924Z,5.13
2018-07-26T16:23:18.009Z,5.60
2018-07-26T16:25:46.290Z,5.00
2018-07-26T16:28:14.553Z,4.83
2018-07-26T16:30:42.824Z,5.80
2018-07-26T16:33:11.072Z,5.53
2018-07-26T16:35:39.348Z,6.00
2018-07-26T16:38:07.624Z,5.07
2018-07-26T16:40:35.812Z,5.97
2018-07-26T16:43:03.819Z,5.40
2018-07-26T16:45:32.197Z,4.73
2018-07-26T16:48:00.478Z,5.43
2018-07-26T16:50:28.511Z,5.17
2018-07-26T16:52:56.803Z,5.33
2018-07-26T16:55:25.105Z,5.27
2018-07-26T16:57:53.376Z,4.93
2018-07-26T17:00:21.663Z,5.07
2018-07-26T17:02:49.939Z,5.27
2018-07-26T17:05:18.185Z,4.80
2018-07-26T17:07:46.471Z,4.80
2018-07-26T17:10:14.955Z,4.50
2018-07-26T17:12:43.219Z,5.90
2018-07-26T17:15:11.713Z,6.00
2018-07-26T17:17:39.979Z,6.03
2018-07-26T17:20:09.395Z,5.43
2018-07-26T17:22:37.652Z,6.07
2018-07-26T17:25:05.934Z,6.20
2018-07-26T17:34:23.144Z,5.60
2018-07-26T17:36:51.415Z,5.00
2018-07-26T17:39:19.695Z,5.23
2018-07-26T17:41:49.472Z,5.37
2018-07-26T17:44:17.735Z,5.60
2018-07-26T17:46:45.992Z,5.37
2018-07-26T17:49:14.248Z,5.80
2018-07-26T17:51:42.507Z,5.83
2018-07-26T17:54:10.822Z,4.97
2018-07-26T17:56:39.099Z,5.60
2018-07-26T17:59:07.449Z,6.20
2018-07-26T18:01:35.535Z,6.17
2018-07-26T18:04:03.892Z,6.73
2018-07-26T18:06:32.238Z,5.73
2018-07-26T18:09:00.639Z,6.40
2018-07-26T18:11:29.000Z,5.37
2018-07-26T18:13:57.071Z,7.33
2018-07-26T18:16:25.361Z,8.27
2018-07-26T18:18:53.926Z,7.17
2018-07-26T18:21:22.188Z,7.30
2018-07-26T18:23:50.485Z,6.47
2018-07-26T18:26:18.800Z,5.80
2018-07-26T18:28:47.176Z,5.47
2018-07-26T18:31:15.460Z,5.80
2018-07-26T18:33:43.727Z,6.07
2018-07-26T18:36:12.030Z,6.23
2018-07-26T18:38:40.320Z,6.50
2018-07-26T18:41:08.630Z,6.57
2018-07-26T18:43:36.916Z,6.27
2018-07-26T18:46:05.224Z,5.80
2018-07-26T18:48:33.521Z,6.80
2018-07-26T18:51:02.884Z,7.00
2018-07-26T18:53:30.955Z,6.13
2018-07-26T18:55:59.299Z,6.20
2018-07-26T18:58:27.593Z,6.13
2018-07-26T19:00:56.159Z,6.47
2018-07-26T19:03:24.698Z,5.73
2018-07-26T19:05:52.732Z,5.13
2018-07-26T19:08:21.140Z,4.40
2018-07-26T19:10:49.454Z,3.90
2018-07-26T19:13:17.794Z,4.13
2018-07-26T19:15:46.099Z,4.43
2018-07-26T19:18:14.362Z,4.60
2018-07-26T19:20:42.632Z,4.90
2018-07-26T19:23:10.905Z,5.33
2018-07-26T19:25:38.927Z,5.10
2018-07-26T19:28:07.182Z,5.13
2018-07-26T19:30:35.181Z,5.23
2018-07-26T19:33:03.445Z,5.03
2018-07-26T19:35:31.536Z,5.87
2018-07-26T19:37:59.748Z,6.07
2018-07-26T19:40:28.015Z,6.13
2018-07-26T19:42:56.131Z,6.70
2018-07-26T19:45:24.485Z,6.30
2018-07-26T19:47:52.809Z,6.63
2018-07-26T19:50:21.097Z,7.43
2018-07-26T19:52:49.375Z,7.37
2018-07-26T19:56:01.142Z,7.10
2018-07-26T19:58:29.167Z,7.90
2018-07-26T20:00:57.495Z,7.63
2018-07-26T20:03:25.919Z,7.50
2018-07-26T20:05:53.955Z,8.10
2018-07-26T20:08:22.318Z,7.43
2018-07-26T20:10:50.579Z,7.07
2018-07-26T20:13:18.598Z,8.63
2018-07-26T20:15:46.872Z,6.93
2018-07-26T20:18:15.133Z,7.93
2018-07-26T20:20:43.432Z,7.83
2018-07-26T20:23:11.435Z,8.70
2018-07-26T20:25:41.045Z,8.37
2018-07-26T20:28:09.710Z,8.23
2018-07-26T20:30:38.410Z,9.60
2018-07-26T20:33:06.705Z,9.77
2018-07-26T20:35:34.983Z,8.60
2018-07-26T20:38:03.288Z,8.70
2018-07-26T20:40:31.271Z,8.47
2018-07-26T20:42:59.299Z,8.40
2018-07-26T20:45:27.619Z,8.80
2018-07-26T20:47:55.891Z,8.73
2018-07-26T20:50:24.172Z,9.23
2018-07-26T20:52:52.465Z,9.47
2018-07-26T20:55:20.726Z,9.33
2018-07-26T20:57:49.056Z,9.10
2018-07-26T21:00:17.375Z,9.33
2018-07-26T21:02:45.420Z,8.93
2018-07-26T21:05:13.752Z,9.53
2018-07-26T21:07:43.892Z,10.17
2018-07-26T21:10:18.881Z,9.27
2018-07-26T21:12:47.154Z,9.23
2018-07-26T21:15:15.444Z,9.40
2018-07-26T21:17:47.682Z,9.80
2018-07-26T21:20:15.835Z,8.53
2018-07-26T21:22:44.164Z,9.13
2018-07-26T21:25:12.167Z,8.90
2018-07-26T21:27:48.435Z,8.43
2018-07-26T21:30:19.908Z,9.53
2018-07-26T21:32:55.245Z,10.23
2018-07-26T21:35:27.282Z,8.80
2018-07-26T21:38:10.431Z,8.70
2018-07-26T21:40:38.741Z,10.23
2018-07-26T21:43:07.215Z,10.20
2018-07-26T21:45:35.551Z,9.07
2018-07-26T21:48:03.828Z,10.80
2018-07-26T21:50:32.141Z,10.73
2018-07-26T21:53:00.414Z,11.07
2018-07-26T21:55:28.774Z,11.20
2018-07-26T21:57:57.004Z,10.87
2018-07-26T22:00:35.706Z,10.17
2018-07-26T22:03:03.983Z,10.57
2018-07-26T22:05:32.240Z,11.10
2018-07-26T22:08:00.520Z,10.80
2018-07-26T22:10:28.780Z,11.00
2018-07-26T22:12:57.135Z,10.20
2018-07-26T22:15:25.440Z,10.37
2018-07-26T22:17:53.712Z,9.17
2018-07-26T22:20:22.072Z,10.33
2018-07-26T22:22:50.355Z,10.23
2018-07-26T22:25:19.413Z,10.43
2018-07-26T22:27:48.104Z,10.60
2018-07-26T22:30:16.123Z,11.10
2018-07-26T22:32:44.404Z,11.63
2018-07-26T22:35:12.705Z,11.23
2018-07-26T22:37:40.968Z,11.17
2018-07-26T22:40:09.235Z,11.90
2018-07-26T22:42:37.544Z,11.70
2018-07-26T22:45:06.015Z,12.33
2018-07-26T22:47:34.363Z,12.87
2018-07-26T22:50:02.723Z,12.20
2018-07-26T22:52:31.482Z,11.03
2018-07-26T22:55:00.018Z,11.00
2018-07-26T22:57:28.281Z,11.30
2018-07-26T22:59:56.307Z,11.57
2018-07-26T23:02:24.571Z,11.60
2018-07-26T23:04:52.872Z,11.20
2018-07-26T23:07:21.171Z,10.23
2018-07-26T23:09:49.564Z,10.27
2018-07-26T23:12:17.832Z,10.10
2018-07-26T23:14:46.108Z,10.57
2018-07-26T23:17:14.183Z,11.83
2018-07-26T23:19:42.196Z,12.27
2018-07-26T23:22:10.451Z,12.10
2018-07-26T23:24:38.705Z,12.37
2018-07-26T23:27:06.984Z,11.27
2018-07-26T23:29:35.274Z,12.07
2018-07-26T23:32:03.551Z,12.27
2018-07-26T23:34:31.828Z,12.07
2018-07-26T23:37:00.555Z,11.93
2018-07-26T23:39:28.825Z,12.43
2018-07-26T23:41:57.100Z,12.67
2018-07-26T23:44:25.371Z,12.17
2018-07-26T23:46:53.634Z,11.97
2018-07-26T23:49:22.756Z,11.47
2018-07-26T23:51:50.758Z,12.23
2018-07-26T23:54:19.027Z,11.20
2018-07-26T23:56:47.096Z,12.03
2018-07-26T23:59:15.362Z,12.93
